Time;durP1;ratioP1;P1;durP2;ratioP2;P2;SDS_P1;SDS_P2;PMS_P1;PMS_P2;Temp;Humidity;BMP_temperature;BMP_pressure;BME280_temperature;BME280_humidity;BME280_pressure;Samples;Min_cycle;Max_cycle;Signal;HPM_P1;HPM_P2
2023/12/29 00:01:01;;;;;;;12.10;3.73;;;;;;;10.13;90.54;100673.03;5283610;28;20510;-75
2023/12/29 00:03:32;;;;;;;8.53;2.97;;;;;;;10.10;90.54;100662.66;5284750;28;20115;-73
2023/12/29 00:06:04;;;;;;;8.53;3.13;;;;;;;10.15;90.17;100662.59;5284729;28;20025;-75
2023/12/29 00:08:38;;;;;;;18.98;4.05;;;;;;;10.15;90.26;100670.41;5284694;28;20032;-74
2023/12/29 00:11:17;;;;;;;8.38;2.72;;;;;;;10.18;90.00;100666.03;5284622;28;20028;-73
2023/12/29 00:13:48;;;;;;;11.20;3.05;;;;;;;10.21;89.71;100672.94;5284541;28;20039;-73
2023/12/29 00:16:20;;;;;;;8.53;2.37;;;;;;;10.25;89.40;100656.38;5284989;28;20428;-74
2023/12/29 00:18:51;;;;;;;9.57;2.53;;;;;;;10.30;89.32;100671.97;5284367;28;20029;-72
2023/12/29 00:21:22;;;;;;;12.60;3.47;;;;;;;10.31;88.89;100668.47;5284284;28;20468;-72
2023/12/29 00:23:54;;;;;;;7.30;2.80;;;;;;;10.13;91.10;100654.81;5284227;28;20016;-74
2023/12/29 00:26:25;;;;;;;12.03;3.57;;;;;;;10.01;92.27;100671.47;5282974;28;20059;-74
2023/12/29 00:28:57;;;;;;;5.93;2.73;;;;;;;9.95;92.49;100657.63;5284162;28;20032;-73
2023/12/29 00:31:29;;;;;;;9.73;2.63;;;;;;;9.91;93.25;100654.22;5284442;28;20122;-73
2023/12/29 00:34:00;;;;;;;11.07;3.60;;;;;;;9.93;93.26;100639.41;5284255;28;20044;-74
2023/12/29 00:36:31;;;;;;;8.20;2.73;;;;;;;9.97;92.75;100650.69;5284146;28;20486;-73
2023/12/29 00:39:03;;;;;;;10.47;3.17;;;;;;;10.02;92.13;100618.47;5284195;28;20052;-72
2023/12/29 00:41:34;;;;;;;11.50;3.23;;;;;;;10.09;91.41;100644.44;5284297;28;20121;-73
2023/12/29 00:44:08;;;;;;;10.03;2.80;;;;;;;10.03;92.36;100640.19;5282674;28;20036;-74
2023/12/29 00:46:39;;;;;;;10.02;3.03;;;;;;;9.79;96.38;100660.44;5284016;28;20402;-72
2023/12/29 00:49:10;;;;;;;13.33;2.60;;;;;;;9.50;99.84;100624.34;5283078;28;20028;-74
2023/12/29 00:51:42;;;;;;;11.60;2.90;;;;;;;9.22;100.00;100635.00;5282643;28;20359;-74
2023/12/29 00:54:13;;;;;;;10.73;3.13;;;;;;;9.03;100.00;100626.53;5284183;28;20512;-73
2023/12/29 00:56:51;;;;;;;15.13;3.80;;;;;;;8.97;100.00;100618.78;5284172;28;20039;-72
2023/12/29 00:59:22;;;;;;;12.73;3.10;;;;;;;8.94;100.00;100627.47;5283246;28;20028;-74
2023/12/29 01:01:54;;;;;;;14.17;4.93;;;;;;;8.84;100.00;100632.75;5283513;28;20116;-73
2023/12/29 01:04:25;;;;;;;11.97;3.27;;;;;;;8.79;100.00;100639.72;5283538;28;20064;-73
2023/12/29 01:06:57;;;;;;;11.93;2.60;;;;;;;8.86;100.00;100641.41;5283513;28;20035;-73
2023/12/29 01:09:28;;;;;;;15.70;4.30;;;;;;;8.68;100.00;100611.22;5282142;28;20044;-72
2023/12/29 01:11:59;;;;;;;15.77;4.40;;;;;;;8.54;100.00;100622.56;5283135;28;20036;-72
2023/12/29 01:14:31;;;;;;;22.00;4.30;;;;;;;8.39;100.00;100615.72;5283600;28;20379;-72
2023/12/29 01:17:02;;;;;;;14.10;3.47;;;;;;;8.33;100.00;100622.69;5283375;28;20062;-73
2023/12/29 01:19:34;;;;;;;12.90;3.60;;;;;;;8.22;100.00;100633.13;5282243;28;20035;-72
2023/12/29 01:22:05;;;;;;;13.00;3.53;;;;;;;8.19;100.00;100620.16;5283239;28;20032;-73
2023/12/29 01:24:36;;;;;;;17.33;3.47;;;;;;;8.14;100.00;100625.38;5283250;28;20063;-72
2023/12/29 01:27:08;;;;;;;23.63;5.93;;;;;;;8.07;100.00;100631.50;5282968;28;20054;-72
2023/12/29 01:29:39;;;;;;;11.30;3.00;;;;;;;7.99;100.00;100631.50;5281871;28;20032;-72
2023/12/29 01:32:10;;;;;;;16.60;4.87;;;;;;;8.02;100.00;100633.25;5283636;28;20032;-73
2023/12/29 01:34:42;;;;;;;12.67;3.50;;;;;;;7.94;100.00;100611.66;5281548;28;20052;-72
2023/12/29 01:37:13;;;;;;;13.70;2.97;;;;;;;7.94;100.00;100607.31;5283232;28;20039;-73
2023/12/29 01:39:45;;;;;;;15.73;3.63;;;;;;;7.92;100.00;100616.84;5283198;28;20106;-72
2023/12/29 01:42:16;;;;;;;15.00;3.50;;;;;;;7.88;100.00;100611.69;5282966;28;20557;-73
2023/12/29 01:44:52;;;;;;;20.13;4.00;;;;;;;7.83;100.00;100611.69;5282950;28;20581;-73
2023/12/29 01:47:24;;;;;;;18.13;4.95;;;;;;;7.84;100.00;100593.53;5282887;28;20029;-73
2023/12/29 01:49:55;;;;;;;16.27;4.63;;;;;;;7.81;100.00;100605.66;5282628;28;20491;-73
2023/12/29 01:52:27;;;;;;;15.03;4.23;;;;;;;7.84;100.00;100596.13;5282492;28;20170;-73
2023/12/29 01:54:58;;;;;;;17.23;3.83;;;;;;;7.82;100.00;100599.56;5282717;28;20182;-72
2023/12/29 01:57:30;;;;;;;19.07;4.23;;;;;;;7.82;100.00;100600.47;5282714;28;20419;-74
2023/12/29 02:00:02;;;;;;;13.87;3.03;;;;;;;7.83;100.00;100606.50;5282073;28;20178;-72
2023/12/29 02:02:34;;;;;;;14.50;4.78;;;;;;;7.82;100.00;100602.19;5281898;28;20037;-73
2023/12/29 02:05:06;;;;;;;11.40;3.63;;;;;;;7.93;100.00;100592.59;5283054;28;20395;-73
2023/12/29 02:07:38;;;;;;;16.63;4.20;;;;;;;7.92;100.00;100597.81;5283258;28;20032;-73
2023/12/29 02:10:15;;;;;;;21.73;4.47;;;;;;;7.92;100.00;100593.50;5282867;28;20037;-72
2023/12/29 02:12:50;;;;;;;13.48;4.15;;;;;;;8.01;100.00;100606.41;5283147;28;20457;-73
2023/12/29 02:15:21;;;;;;;13.75;3.65;;;;;;;7.96;100.00;100610.75;5282329;28;20033;-73
2023/12/29 02:18:06;;;;;;;15.87;4.07;;;;;;;7.99;100.00;100609.91;5282887;28;20404;-73
2023/12/29 02:20:37;;;;;;;9.25;2.83;;;;;;;7.96;100.00;100602.13;5282887;28;20024;-74
2023/12/29 02:23:10;;;;;;;14.73;4.17;;;;;;;7.95;100.00;100601.28;5282115;28;20037;-73
2023/12/29 02:25:41;;;;;;;11.18;3.58;;;;;;;8.04;100.00;100613.31;5282476;28;20388;-73
2023/12/29 02:28:22;;;;;;;11.63;3.63;;;;;;;8.08;100.00;100608.97;5282273;28;20064;-73
2023/12/29 02:31:09;;;;;;;11.48;3.38;;;;;;;8.20;100.00;100598.53;5282513;28;20063;-74
2023/12/29 02:33:44;;;;;;;14.32;3.53;;;;;;;8.29;100.00;100595.88;5282366;28;20165;-74
2023/12/29 02:36:16;;;;;;;9.50;3.10;;;;;;;8.40;100.00;100596.69;5282728;28;20123;-73
2023/12/29 02:38:48;;;;;;;11.40;3.20;;;;;;;8.51;100.00;100604.41;5282312;28;20044;-73
2023/12/29 02:41:19;;;;;;;12.43;2.97;;;;;;;8.62;100.00;100588.75;5282431;28;20094;-73
2023/12/29 02:43:50;;;;;;;11.33;2.80;;;;;;;8.70;100.00;100615.53;5282665;28;20150;-75
2023/12/29 02:46:22;;;;;;;11.60;2.70;;;;;;;8.70;100.00;100612.06;5282188;28;20034;-74
2023/12/29 02:48:53;;;;;;;14.73;3.43;;;;;;;8.76;100.00;100625.03;5282568;28;20052;-73
2023/12/29 02:51:25;;;;;;;7.77;2.10;;;;;;;8.77;100.00;100603.34;5282511;28;20067;-73
2023/12/29 02:53:56;;;;;;;11.20;4.10;;;;;;;8.88;100.00;100605.84;5282239;28;20029;-74
2023/12/29 02:56:27;;;;;;;11.67;3.20;;;;;;;8.87;100.00;100617.13;5281859;28;20471;-74
2023/12/29 02:58:59;;;;;;;14.93;3.43;;;;;;;8.94;100.00;100601.47;5282833;28;20448;-74
2023/12/29 03:01:30;;;;;;;11.80;3.40;;;;;;;9.01;100.00;100607.47;5282103;28;20094;-73
2023/12/29 03:04:01;;;;;;;11.83;3.00;;;;;;;8.95;100.00;100610.09;5282629;28;20028;-73
2023/12/29 03:06:33;;;;;;;11.30;3.40;;;;;;;8.96;100.00;100604.03;5282238;28;20107;-73
2023/12/29 03:09:04;;;;;;;9.57;3.90;;;;;;;8.91;100.00;100605.84;5280868;28;20033;-74
2023/12/29 03:11:35;;;;;;;8.30;2.80;;;;;;;8.96;100.00;100604.03;5282268;28;20090;-74
2023/12/29 03:14:07;;;;;;;9.27;2.30;;;;;;;8.92;100.00;100592.81;5285694;28;20043;-74
2023/12/29 03:16:38;;;;;;;13.87;3.20;;;;;;;9.00;100.00;100597.97;5286178;28;20033;-74
2023/12/29 03:19:10;;;;;;;12.80;2.87;;;;;;;8.91;100.00;100595.44;5285921;28;20108;-74
2023/12/29 03:21:41;;;;;;;8.47;2.73;;;;;;;8.92;100.00;100589.38;5285472;28;20060;-72
2023/12/29 03:24:12;;;;;;;17.90;4.27;;;;;;;8.88;100.00;100600.66;5285534;28;20071;-74
2023/12/29 03:26:44;;;;;;;16.13;3.97;;;;;;;9.02;100.00;100595.34;5286167;28;20033;-74
2023/12/29 03:29:15;;;;;;;14.23;3.47;;;;;;;9.07;100.00;100607.41;5285632;28;20102;-74
2023/12/29 03:31:46;;;;;;;10.73;2.80;;;;;;;9.10;100.00;100619.53;5285212;28;20120;-74
2023/12/29 03:34:19;;;;;;;10.50;3.40;;;;;;;9.15;100.00;100607.34;5285573;28;20040;-74
2023/12/29 03:36:50;;;;;;;;;;;;;;;9.17;100.00;100604.72;5285953;28;20428;-74
2023/12/29 03:39:23;;;;;;;11.65;3.25;;;;;;;9.12;100.00;100599.56;5284859;28;19924;-75
2023/12/29 03:41:54;;;;;;;12.23;3.58;;;;;;;9.08;100.00;100593.53;5285285;28;20458;-75
2023/12/29 03:44:26;;;;;;;13.10;3.20;;;;;;;9.13;100.00;100602.16;5285326;28;20116;-74
2023/12/29 03:46:57;;;;;;;10.13;3.70;;;;;;;9.17;100.00;100622.94;5285472;28;20024;-72
2023/12/29 03:49:28;;;;;;;7.03;2.63;;;;;;;9.28;100.00;100579.47;5285085;28;20047;-72
2023/12/29 03:52:00;;;;;;;12.30;4.07;;;;;;;9.25;100.00;100593.34;5285087;28;20040;-73
2023/12/29 03:54:31;;;;;;;12.90;3.63;;;;;;;9.37;100.00;100594.09;5283723;28;20364;-73
2023/12/29 03:57:02;;;;;;;9.87;3.20;;;;;;;9.33;100.00;100587.22;5285799;28;20035;-73
2023/12/29 03:59:37;;;;;;;11.57;2.50;;;;;;;9.35;100.00;100607.13;5284904;28;20052;-72
2023/12/29 04:02:08;;;;;;;8.95;2.83;;;;;;;9.32;100.00;100594.16;5285335;28;20037;-74
2023/12/29 04:04:41;;;;;;;9.20;3.40;;;;;;;9.36;100.00;100585.44;5284989;28;20042;-74
2023/12/29 04:07:12;;;;;;;11.57;2.78;;;;;;;9.33;100.00;100580.28;5283765;28;20128;-74
2023/12/29 04:09:44;;;;;;;9.60;3.00;;;;;;;9.28;100.00;100595.94;5284788;28;20097;-74
2023/12/29 04:12:15;;;;;;;13.27;3.37;;;;;;;9.28;100.00;100587.28;5283891;28;20412;-74
2023/12/29 04:14:46;;;;;;;11.63;3.17;;;;;;;9.30;100.00;100580.31;5285007;28;20036;-74
2023/12/29 04:17:18;;;;;;;8.60;2.60;;;;;;;9.31;100.00;100597.66;5284709;28;20028;-74
2023/12/29 04:19:49;;;;;;;13.30;2.93;;;;;;;9.38;100.00;100603.63;5283903;28;20098;-74
2023/12/29 04:22:20;;;;;;;16.27;4.27;;;;;;;9.39;100.00;100594.97;5284709;28;20533;-74
2023/12/29 04:24:52;;;;;;;10.93;3.10;;;;;;;9.31;100.00;100597.66;5283682;28;20082;-74
2023/12/29 04:27:23;;;;;;;13.97;3.50;;;;;;;9.25;100.00;100588.16;5284939;28;20087;-73
2023/12/29 04:29:55;;;;;;;12.97;3.37;;;;;;;9.25;100.00;100597.72;5284360;28;20491;-74
2023/12/29 04:32:26;;;;;;;10.43;3.80;;;;;;;9.22;100.00;100585.59;5284347;28;20041;-74
2023/12/29 04:34:57;;;;;;;9.90;3.47;;;;;;;9.22;100.00;100588.19;5284645;28;20025;-73
2023/12/29 04:37:29;;;;;;;15.67;3.70;;;;;;;9.18;100.00;100594.31;5284136;28;20511;-74
2023/12/29 04:40:00;;;;;;;10.93;2.93;;;;;;;9.17;100.00;100597.78;5266427;28;20392;-74
2023/12/29 04:42:32;;;;;;;12.03;4.10;;;;;;;9.24;100.00;100588.16;5284277;28;20321;-74
2023/12/29 04:45:05;;;;;;;14.07;3.23;;;;;;;9.20;100.00;100582.16;5284631;28;20033;-74
2023/12/29 04:47:37;;;;;;;15.05;4.40;;;;;;;9.27;100.00;100598.53;5282885;28;20024;-75
2023/12/29 04:50:08;;;;;;;15.02;4.10;;;;;;;9.27;100.00;100601.16;5284334;28;20029;-75
2023/12/29 04:52:39;;;;;;;12.57;4.00;;;;;;;9.23;100.00;100583.88;5284417;28;20037;-75
2023/12/29 04:55:12;;;;;;;14.13;4.07;;;;;;;9.17;100.00;100570.91;5284148;28;20055;-74
2023/12/29 04:57:44;;;;;;;11.90;3.35;;;;;;;9.13;100.00;100588.31;5283876;28;20025;-74
2023/12/29 05:00:15;;;;;;;10.67;2.80;;;;;;;9.18;100.00;100590.84;5284004;28;20032;-73
2023/12/29 05:02:47;;;;;;;14.20;3.87;;;;;;;9.17;100.00;100586.53;5283712;28;20048;-74
2023/12/29 05:05:18;;;;;;;12.00;3.97;;;;;;;9.12;100.00;100590.03;5283955;28;20040;-75
2023/12/29 05:07:49;;;;;;;12.30;3.10;;;;;;;9.09;100.00;100591.78;5283857;28;20061;-74
2023/12/29 05:10:21;;;;;;;15.47;3.57;;;;;;;9.15;100.00;100585.69;5283848;28;20028;-75
2023/12/29 05:12:52;;;;;;;13.20;4.07;;;;;;;9.10;100.00;100583.13;5282332;28;20067;-76
2023/12/29 05:15:23;;;;;;;19.10;4.10;;;;;;;9.06;100.00;100591.81;5283780;28;20051;-75
2023/12/29 05:17:55;;;;;;;11.73;3.47;;;;;;;9.11;100.00;100611.72;5283570;28;20123;-74
2023/12/29 05:20:26;;;;;;;13.00;3.70;;;;;;;9.07;100.00;100594.41;5283139;28;20156;-74
2023/12/29 05:22:58;;;;;;;13.33;4.23;;;;;;;9.11;100.00;100588.31;5283745;28;20063;-74
2023/12/29 05:25:29;;;;;;;15.10;4.57;;;;;;;9.16;100.00;100597.78;5283374;28;20040;-74
2023/12/29 05:28:00;;;;;;;10.30;3.73;;;;;;;9.19;100.00;100595.16;5284205;28;20428;-74
2023/12/29 05:30:32;;;;;;;12.57;4.00;;;;;;;9.13;100.00;100589.16;5265674;28;20033;-74
2023/12/29 05:33:03;;;;;;;20.50;4.93;;;;;;;9.10;100.00;100596.13;5284068;28;20029;-74
2023/12/29 05:35:34;;;;;;;10.20;3.73;;;;;;;9.05;100.00;100580.56;5283562;28;20372;-74
2023/12/29 05:38:06;;;;;;;12.77;2.97;;;;;;;8.97;100.00;100569.38;5283441;28;20083;-74
2023/12/29 05:40:37;;;;;;;10.87;4.00;;;;;;;8.97;100.00;100571.09;5282934;28;20052;-74
2023/12/29 05:43:09;;;;;;;10.30;3.80;;;;;;;8.93;100.00;100578.06;5283225;28;20082;-74
2023/12/29 05:45:40;;;;;;;17.63;4.80;;;;;;;8.83;100.00;100577.31;5283207;28;20048;-74
2023/12/29 05:48:11;;;;;;;9.33;3.00;;;;;;;8.87;100.00;100570.31;5283049;28;20119;-75
2023/12/29 05:50:43;;;;;;;11.40;2.70;;;;;;;8.92;100.00;100584.16;5283565;28;20037;-74
2023/12/29 05:53:15;;;;;;;13.47;3.97;;;;;;;8.98;100.00;100581.50;5283673;28;20101;-73
2023/12/29 05:55:46;;;;;;;13.13;3.20;;;;;;;8.98;100.00;100578.03;5283232;28;20024;-74
2023/12/29 05:58:17;;;;;;;11.57;3.10;;;;;;;8.96;100.00;100575.44;5283346;28;20271;-75
2023/12/29 06:00:49;;;;;;;14.97;3.80;;;;;;;9.01;100.00;100584.06;5283406;28;20032;-74
2023/12/29 06:03:20;;;;;;;12.67;3.37;;;;;;;9.02;100.00;100570.19;5282364;28;20081;-73
2023/12/29 06:05:52;;;;;;;12.13;3.60;;;;;;;8.96;100.00;100566.78;5282993;28;20020;-75
2023/12/29 06:08:23;;;;;;;10.13;2.90;;;;;;;8.73;100.00;100573.06;5283330;28;20044;-75
2023/12/29 06:10:55;;;;;;;10.60;3.17;;;;;;;8.59;100.00;100565.38;5283620;28;20068;-74
2023/12/29 06:13:27;;;;;;;12.30;3.93;;;;;;;8.57;100.00;100569.72;5282937;28;20025;-74
2023/12/29 06:15:59;;;;;;;13.80;3.00;;;;;;;8.67;100.00;100578.31;5283142;28;20060;-75
2023/12/29 06:18:30;;;;;;;10.87;3.67;;;;;;;8.76;100.00;100568.69;5281597;28;20416;-75
2023/12/29 06:21:03;;;;;;;11.10;3.10;;;;;;;8.86;100.00;100577.28;5282526;28;20080;-74
2023/12/29 06:23:34;;;;;;;9.63;3.65;;;;;;;8.96;100.00;100549.44;5283362;28;20032;-74
2023/12/29 06:26:13;;;;;;;11.20;3.00;;;;;;;8.97;100.00;100561.59;5282984;28;20040;-74
2023/12/29 06:28:46;;;;;;;9.85;3.55;;;;;;;8.97;100.00;100571.09;5282428;28;20028;-74
2023/12/29 06:31:18;;;;;;;10.30;3.58;;;;;;;9.09;100.00;100558.00;5283892;28;20367;-74
2023/12/29 06:33:49;;;;;;;10.93;3.38;;;;;;;9.08;100.00;100564.94;5283485;28;20033;-73
2023/12/29 06:36:21;;;;;;;11.17;2.90;;;;;;;9.10;100.00;100583.97;5283018;28;20032;-74
2023/12/29 06:38:52;;;;;;;13.47;4.13;;;;;;;9.07;100.00;100578.81;5283107;28;20049;-74
2023/12/29 06:41:24;;;;;;;11.90;3.47;;;;;;;9.05;100.00;100583.16;5283298;28;20032;-74
2023/12/29 06:43:56;;;;;;;14.02;3.35;;;;;;;9.04;100.00;100576.22;5282593;28;20029;-73
2023/12/29 06:46:27;;;;;;;14.73;3.23;;;;;;;9.07;100.00;100577.97;5282432;28;20486;-74
2023/12/29 06:48:58;;;;;;;8.00;2.80;;;;;;;9.11;100.00;100570.13;5286394;28;20179;-74
2023/12/29 06:51:30;;;;;;;7.23;2.17;;;;;;;9.08;100.00;100562.34;5286264;28;20028;-74
2023/12/29 06:54:01;;;;;;;13.07;3.10;;;;;;;9.05;100.00;100559.75;5287075;28;20066;-72
2023/12/29 06:56:33;;;;;;;10.43;2.83;;;;;;;9.01;100.00;100567.59;5285115;28;20092;-74
2023/12/29 06:59:04;;;;;;;11.80;3.73;;;;;;;9.04;100.00;100573.63;5285318;28;20032;-73
2023/12/29 07:01:39;;;;;;;10.40;2.83;;;;;;;9.06;100.00;100566.66;5286750;28;20051;-75
2023/12/29 07:04:11;;;;;;;12.52;4.22;;;;;;;9.02;100.00;100532.94;5286583;28;20028;-73
2023/12/29 07:06:43;;;;;;;8.50;3.20;;;;;;;9.02;100.00;100559.78;5286258;28;20051;-75
2023/12/29 07:09:14;;;;;;;9.67;2.73;;;;;;;9.02;100.00;100565.00;5287115;28;20021;-74
2023/12/29 07:11:49;;;;;;;11.60;2.80;;;;;;;9.01;100.00;100547.66;5289211;28;20040;-73
2023/12/29 07:14:21;;;;;;;11.82;3.05;;;;;;;8.97;100.00;100552.91;5292837;28;20057;-74
2023/12/29 07:16:52;;;;;;;15.07;5.83;;;;;;;8.70;100.00;100542.75;5287417;28;20060;-74
2023/12/29 07:19:23;;;;;;;11.63;2.80;;;;;;;8.63;100.00;100535.03;5287042;28;20028;-74
2023/12/29 07:21:55;;;;;;;7.57;3.00;;;;;;;8.56;100.00;100542.91;5287199;28;20039;-74
2023/12/29 07:24:26;;;;;;;9.17;2.53;;;;;;;8.57;100.00;100541.16;5286972;28;20029;-74
2023/12/29 07:26:58;;;;;;;12.23;3.47;;;;;;;8.70;100.00;100562.69;5286967;28;20033;-75
2023/12/29 07:29:30;;;;;;;14.17;4.87;;;;;;;8.74;100.00;100543.59;5287840;28;20435;-74
2023/12/29 07:32:02;;;;;;;11.07;3.42;;;;;;;8.86;100.00;100537.44;5287411;28;20029;-74
2023/12/29 07:34:33;;;;;;;10.60;3.00;;;;;;;8.89;100.00;100527.88;5291245;28;20449;-75
2023/12/29 07:37:05;;;;;;;5.70;2.90;;;;;;;8.92;100.00;100527.84;5291738;28;20090;-74
2023/12/29 07:39:37;;;;;;;10.10;3.40;;;;;;;9.02;100.00;100497.41;5292973;28;20041;-73
2023/12/29 07:42:08;;;;;;;11.35;3.15;;;;;;;9.05;100.00;100536.38;5291540;28;20029;-75
2023/12/29 07:44:40;;;;;;;8.03;2.40;;;;;;;9.08;100.00;100536.34;5291484;28;20039;-77
2023/12/29 07:47:11;;;;;;;9.93;2.33;;;;;;;9.08;100.00;100519.84;5290880;28;20071;-75
2023/12/29 07:49:43;;;;;;;9.70;2.37;;;;;;;9.07;100.00;100526.81;5293942;28;20476;-73
2023/12/29 07:52:14;;;;;;;4.97;2.10;;;;;;;9.05;100.00;100549.38;5295009;28;20040;-76
2023/12/29 07:54:45;;;;;;;5.40;2.17;;;;;;;9.02;100.00;100564.16;5291265;28;20032;-74
2023/12/29 07:57:17;;;;;;;7.17;2.30;;;;;;;9.01;100.00;100571.06;5293447;28;20029;-74
2023/12/29 07:59:48;;;;;;;6.97;2.40;;;;;;;9.03;100.00;100577.13;5292379;28;20035;-74
2023/12/29 08:02:19;;;;;;;6.77;2.20;;;;;;;9.05;100.00;100588.38;5294175;28;20036;-74
2023/12/29 08:04:51;;;;;;;7.57;2.40;;;;;;;9.07;100.00;100577.97;5293298;28;20115;-73
2023/12/29 08:07:22;;;;;;;7.37;2.30;;;;;;;9.05;100.00;100584.91;5294245;28;20036;-75
2023/12/29 08:09:53;;;;;;;4.97;1.70;;;;;;;9.09;100.00;100581.38;5299553;28;20033;-73
2023/12/29 08:12:25;;;;;;;10.43;3.20;;;;;;;9.11;100.00;100580.50;5299932;28;20028;-74
2023/12/29 08:14:56;;;;;;;5.07;2.00;;;;;;;9.09;100.00;100568.38;5300258;28;20036;-73
2023/12/29 08:17:28;;;;;;;6.60;1.77;;;;;;;9.08;100.00;100562.34;5297563;28;20086;-74
2023/12/29 08:19:59;;;;;;;7.93;2.20;;;;;;;9.15;100.00;100554.47;5301029;28;20033;-75
2023/12/29 08:22:32;;;;;;;5.87;2.00;;;;;;;9.10;100.00;100572.72;5297874;28;20345;-74
2023/12/29 08:25:04;;;;;;;5.70;2.22;;;;;;;9.13;100.00;100570.09;5293839;28;20116;-74
2023/12/29 08:27:35;;;;;;;4.20;2.20;;;;;;;9.13;100.00;100572.69;5293403;28;20056;-74
2023/12/29 08:30:07;;;;;;;2.80;1.50;;;;;;;9.15;100.00;100577.88;5294919;28;20436;-74
2023/12/29 08:32:38;;;;;;;4.43;1.63;;;;;;;9.11;100.00;100575.31;5294088;28;20059;-75
2023/12/29 08:35:10;;;;;;;6.20;1.93;;;;;;;9.11;100.00;100569.22;5295372;28;20029;-73
2023/12/29 08:37:41;;;;;;;5.53;2.00;;;;;;;9.13;100.00;100572.69;5294318;28;20049;-73
2023/12/29 08:40:13;;;;;;;3.30;1.77;;;;;;;9.13;100.00;100578.75;5291687;28;20064;-74
2023/12/29 08:42:44;;;;;;;4.97;1.87;;;;;;;9.14;100.00;100595.19;5291956;28;20031;-74
2023/12/29 08:45:16;;;;;;;3.87;1.43;;;;;;;9.12;100.00;100608.22;5291655;28;20123;-74
2023/12/29 08:47:47;;;;;;;7.13;1.60;;;;;;;9.07;100.00;100599.59;5293858;28;20496;-73
2023/12/29 08:50:18;;;;;;;4.77;1.70;;;;;;;8.85;100.00;100603.28;5289653;28;20068;-74
2023/12/29 08:52:50;;;;;;;4.80;1.50;;;;;;;8.65;100.00;100600.84;5292237;28;20036;-73
2023/12/29 08:55:21;;;;;;;4.37;1.50;;;;;;;8.48;100.00;100598.38;5290942;28;20028;-73
2023/12/29 08:57:52;;;;;;;6.40;2.13;;;;;;;8.38;100.00;100593.19;5292609;28;20040;-73
2023/12/29 09:00:24;;;;;;;6.20;1.60;;;;;;;8.40;100.00;100603.59;5297341;28;20045;-73
2023/12/29 09:02:56;;;;;;;4.40;1.60;;;;;;;8.37;100.00;100601.88;5299748;28;20029;-74
2023/12/29 09:05:28;;;;;;;4.25;1.55;;;;;;;8.28;100.00;100588.94;5298798;28;20086;-75
2023/12/29 09:07:59;;;;;;;3.73;1.50;;;;;;;8.31;100.00;100607.13;5299597;28;20028;-73
2023/12/29 09:10:31;;;;;;;3.93;1.50;;;;;;;8.31;100.00;100586.34;5298366;28;20032;-73
2023/12/29 09:13:02;;;;;;;7.57;2.23;;;;;;;8.27;100.00;100600.19;5296653;28;20029;-73
2023/12/29 09:15:34;;;;;;;4.13;1.70;;;;;;;8.22;100.00;100587.25;5298203;28;20043;-74
2023/12/29 09:18:06;;;;;;;5.60;1.90;;;;;;;8.17;100.00;100589.00;5299381;28;20040;-73
2023/12/29 09:20:37;;;;;;;7.60;2.17;;;;;;;8.16;100.00;100600.28;5297161;28;20323;-73
2023/12/29 09:23:09;;;;;;;4.07;1.40;;;;;;;8.20;100.00;100599.38;5286141;28;20440;-74
2023/12/29 09:25:41;;;;;;;7.70;1.63;;;;;;;8.19;100.00;100602.88;5285080;28;20020;-74
2023/12/29 09:28:12;;;;;;;3.05;1.52;;;;;;;8.22;100.00;100635.72;5283498;28;20545;-74
2023/12/29 09:30:43;;;;;;;3.97;1.40;;;;;;;8.31;100.00;100607.13;5284336;28;20050;-73
2023/12/29 09:33:15;;;;;;;3.73;1.53;;;;;;;8.29;100.00;100606.28;5283545;28;20052;-74
2023/12/29 09:35:46;;;;;;;3.80;1.67;;;;;;;8.35;100.00;100610.53;5283664;28;20086;-74
2023/12/29 09:38:18;;;;;;;6.07;1.50;;;;;;;8.40;100.00;100608.78;5282917;28;20056;-73
2023/12/29 09:40:52;;;;;;;2.58;1.65;;;;;;;8.46;100.00;100608.78;5282975;28;20036;-74
2023/12/29 09:43:25;;;;;;;2.75;1.30;;;;;;;8.55;100.00;100611.31;5283211;28;20032;-74
2023/12/29 09:45:58;;;;;;;;;;;;;;;8.62;100.00;100617.31;5283345;28;20025;-73
2023/12/29 09:48:31;;;;;;;2.97;1.30;;;;;;;8.72;100.00;100613.75;5283354;28;20347;-75
2023/12/29 09:51:05;;;;;;;3.95;1.52;;;;;;;8.83;100.00;100620.63;5282863;28;20023;-74
2023/12/29 09:53:37;;;;;;;3.63;1.27;;;;;;;8.88;100.00;100624.91;5283009;28;20021;-74
2023/12/29 09:56:09;;;;;;;4.85;1.98;;;;;;;8.93;100.00;100617.94;5282814;28;20028;-74
2023/12/29 09:58:41;;;;;;;3.30;1.50;;;;;;;8.93;100.00;100611.88;5283012;28;20051;-75
2023/12/29 10:01:13;;;;;;;2.93;1.00;;;;;;;8.91;100.00;100632.69;5282935;28;20028;-74
2023/12/29 10:03:47;;;;;;;2.97;1.30;;;;;;;9.04;100.00;100614.38;5281701;28;20028;-73
2023/12/29 10:06:24;;;;;;;4.13;1.30;;;;;;;9.16;100.00;100634.19;5282720;28;20028;-74
2023/12/29 10:08:57;;;;;;;3.40;1.30;;;;;;;9.24;100.00;100621.97;5282784;28;20040;-75
2023/12/29 10:11:30;;;;;;;5.15;1.30;;;;;;;9.35;100.00;100608.88;5282677;28;20036;-74
2023/12/29 10:14:08;;;;;;;;;;;;;;;9.41;100.00;100617.47;5283415;28;20402;-74
2023/12/29 10:16:43;;;;;;;3.28;1.30;;;;;;;9.45;100.00;100618.28;5282603;28;19995;-72
2023/12/29 10:19:30;;;;;;;5.03;1.67;;;;;;;9.51;100.00;100625.19;5281880;28;20027;-74
2023/12/29 10:22:15;;;;;;;5.35;1.65;;;;;;;9.58;100.00;100619.03;5282695;28;20349;-74
2023/12/29 10:24:47;;;;;;;4.28;1.75;;;;;;;9.61;100.00;100611.19;5285244;28;20032;-73
2023/12/29 10:27:19;;;;;;;2.78;1.33;;;;;;;9.64;100.00;100627.66;5286005;28;20189;-74
2023/12/29 10:29:52;;;;;;;2.87;0.93;;;;;;;9.70;100.00;100629.31;5285115;28;20032;-74
2023/12/29 10:32:23;;;;;;;;;;;;;;;9.79;100.00;100639.63;5286540;28;20363;-75
2023/12/29 10:35:21;;;;;;;2.58;1.25;;;;;;;9.79;100.00;100633.56;5286436;28;19916;-74
2023/12/29 10:37:53;;;;;;;1.80;1.05;;;;;;;9.75;100.00;100643.13;5283552;28;20064;-74
2023/12/29 10:40:24;;;;;;;2.70;1.23;;;;;;;9.71;100.00;100641.44;5286893;28;20103;-74
2023/12/29 10:42:57;;;;;;;4.73;1.60;;;;;;;9.72;100.00;100650.97;5285939;28;20455;-75
2023/12/29 10:45:28;;;;;;;3.78;1.50;;;;;;;9.78;100.00;100663.06;5285804;28;20032;-75
2023/12/29 10:48:00;;;;;;;4.07;1.73;;;;;;;9.83;100.00;100651.69;5285861;28;20078;-75
2023/12/29 10:50:42;;;;;;;5.57;1.60;;;;;;;9.89;100.00;100657.72;5285284;28;20056;-75
2023/12/29 10:53:17;;;;;;;4.22;1.30;;;;;;;9.96;100.00;100668.03;5286374;28;20035;-75
2023/12/29 10:55:49;;;;;;;7.03;2.00;;;;;;;9.96;100.00;100655.00;5285933;28;20117;-75
2023/12/29 10:58:20;;;;;;;5.67;1.97;;;;;;;9.98;100.00;100655.88;5285575;28;20032;-75
2023/12/29 11:00:52;;;;;;;7.70;2.00;;;;;;;10.04;100.00;100649.72;5285849;28;20035;-74
2023/12/29 11:03:24;;;;;;;8.93;2.70;;;;;;;10.06;100.00;100657.50;5285232;28;20033;-75
2023/12/29 11:06:01;;;;;;;6.07;2.30;;;;;;;10.05;100.00;100654.06;5284214;28;20025;-73
2023/12/29 11:08:35;;;;;;;10.00;2.33;;;;;;;10.10;100.00;100657.47;5285464;28;20024;-75
2023/12/29 11:11:07;;;;;;;5.40;2.03;;;;;;;10.09;100.00;100639.25;5285512;28;20028;-74
2023/12/29 11:13:40;;;;;;;7.15;2.35;;;;;;;10.11;100.00;100647.88;5285265;28;20050;-75
2023/12/29 11:16:12;;;;;;;12.90;2.97;;;;;;;10.13;100.00;100646.16;5285471;28;20024;-74
2023/12/29 11:18:44;;;;;;;5.35;2.47;;;;;;;10.11;100.00;100653.09;5285578;28;20082;-75
2023/12/29 11:21:17;;;;;;;11.07;3.03;;;;;;;10.05;100.00;100646.25;5284195;28;20025;-75
2023/12/29 11:23:48;;;;;;;7.20;2.45;;;;;;;10.03;100.00;100653.22;5285087;28;20056;-73
2023/12/29 11:26:20;;;;;;;9.47;3.07;;;;;;;9.97;100.00;100651.53;5284984;28;20039;-75
2023/12/29 11:28:54;;;;;;;6.85;2.10;;;;;;;9.96;100.00;100638.53;5285051;28;20036;-74
2023/12/29 11:31:25;;;;;;;7.50;2.08;;;;;;;9.92;100.00;100663.75;5285198;28;20036;-75
2023/12/29 11:34:05;;;;;;;7.07;1.80;;;;;;;9.81;100.00;100661.28;5284623;28;20048;-74
2023/12/29 11:36:43;;;;;;;8.02;2.25;;;;;;;9.65;100.00;100650.16;5285465;28;20434;-75
2023/12/29 11:39:34;;;;;;;9.45;2.15;;;;;;;9.57;100.00;100651.16;5284719;28;20045;-73
2023/12/29 11:42:17;;;;;;;8.77;1.88;;;;;;;9.26;100.00;100654.06;5284945;28;20051;-73
2023/12/29 11:44:50;;;;;;;7.78;2.50;;;;;;;8.82;100.00;100650.94;5284886;28;20020;-72